sensor_id;sensor_type;location;lat;lon;timestamp;pressure;altitude;pressure_sealevel;temperature;humidity
62694;BME280;48759;52.544;13.418;2023-02-02T00:00:49;100137.59;;;2.74;100.00
62694;BME280;48759;52.544;13.418;2023-02-02T00:03:16;100120.28;;;2.67;100.00
62694;BME280;48759;52.544;13.418;2023-02-02T00:05:46;100125.00;;;2.57;100.00
62694;BME280;48759;52.544;13.418;2023-02-02T00:08:13;100112.97;;;2.51;100.00
62694;BME280;48759;52.544;13.418;2023-02-02T00:10:42;100125.72;;;2.67;100.00
62694;BME280;48759;52.544;13.418;2023-02-02T00:13:09;100121.97;;;2.84;100.00
62694;BME280;48759;52.544;13.418;2023-02-02T00:15:36;100145.72;;;2.58;100.00
62694;BME280;48759;52.544;13.418;2023-02-02T00:18:03;100121.63;;;2.71;100.00
62694;BME280;48759;52.544;13.418;2023-02-02T00:20:30;100115.69;;;2.84;100.00
62694;BME280;48759;52.544;13.418;2023-02-02T00:22:59;100152.19;;;2.73;100.00
62694;BME280;48759;52.544;13.418;2023-02-02T00:25:25;100117.56;;;2.75;100.00
62694;BME280;48759;52.544;13.418;2023-02-02T00:27:54;100118.53;;;3.06;100.00
62694;BME280;48759;52.544;13.418;2023-02-02T00:30:21;100111.75;;;2.94;100.00
62694;BME280;48759;52.544;13.418;2023-02-02T00:32:48;100134.19;;;2.88;100.00
62694;BME280;48759;52.544;13.418;2023-02-02T00:35:16;100123.44;;;3.03;100.00
62694;BME280;48759;52.544;13.418;2023-02-02T00:37:43;100091.22;;;2.84;100.00
62694;BME280;48759;52.544;13.418;2023-02-02T00:40:10;100099.88;;;2.79;100.00
62694;BME280;48759;52.544;13.418;2023-02-02T00:42:37;100084.94;;;2.91;100.00
62694;BME280;48759;52.544;13.418;2023-02-02T00:45:06;100090.69;;;2.88;100.00
62694;BME280;48759;52.544;13.418;2023-02-02T00:47:49;100110.75;;;2.55;100.00
62694;BME280;48759;52.544;13.418;2023-02-02T00:50:18;100096.81;;;2.98;100.00
62694;BME280;48759;52.544;13.418;2023-02-02T00:52:45;100157.63;;;2.73;100.00
62694;BME280;48759;52.544;13.418;2023-02-02T00:55:13;100098.88;;;2.64;100.00
62694;BME280;48759;52.544;13.418;2023-02-02T00:57:40;100104.47;;;2.70;100.00
62694;BME280;48759;52.544;13.418;2023-02-02T01:00:14;100111.78;;;2.70;100.00
62694;BME280;48759;52.544;13.418;2023-02-02T01:02:41;100106.34;;;2.78;100.00
62694;BME280;48759;52.544;13.418;2023-02-02T01:05:09;100132.16;;;2.66;100.00
62694;BME280;48759;52.544;13.418;2023-02-02T01:07:36;100133.81;;;2.26;100.00
62694;BME280;48759;52.544;13.418;2023-02-02T01:10:03;100114.84;;;2.51;100.00
62694;BME280;48759;52.544;13.418;2023-02-02T01:12:29;100129.44;;;2.50;100.00
62694;BME280;48759;52.544;13.418;2023-02-02T01:14:56;100108.72;;;2.41;100.00
62694;BME280;48759;52.544;13.418;2023-02-02T01:17:24;100122.97;;;2.35;100.00
62694;BME280;48759;52.544;13.418;2023-02-02T01:19:51;100122.63;;;2.29;100.00
62694;BME280;48759;52.544;13.418;2023-02-02T01:22:17;100111.78;;;2.29;100.00
62694;BME280;48759;52.544;13.418;2023-02-02T01:24:44;100111.78;;;2.29;100.00
62694;BME280;48759;52.544;13.418;2023-02-02T01:27:11;100112.28;;;2.49;100.00
62694;BME280;48759;52.544;13.418;2023-02-02T01:29:38;100118.91;;;2.47;100.00
62694;BME280;48759;52.544;13.418;2023-02-02T01:32:04;100135.47;;;2.03;100.00
62694;BME280;48759;52.544;13.418;2023-02-02T01:34:33;100123.13;;;1.59;100.00
62694;BME280;48759;52.544;13.418;2023-02-02T01:36:59;100109.81;;;1.81;100.00
62694;BME280;48759;52.544;13.418;2023-02-02T01:39:26;100108.28;;;1.79;100.00
62694;BME280;48759;52.544;13.418;2023-02-02T01:41:53;100103.81;;;1.70;100.00
62694;BME280;48759;52.544;13.418;2023-02-02T01:47:27;100108.00;;;1.98;100.00
62694;BME280;48759;52.544;13.418;2023-02-02T01:49:56;100115.13;;;1.99;100.00
62694;BME280;48759;52.544;13.418;2023-02-02T01:52:25;100089.69;;;2.16;100.00
62694;BME280;48759;52.544;13.418;2023-02-02T01:54:54;100122.03;;;1.93;100.00
62694;BME280;48759;52.544;13.418;2023-02-02T01:57:24;100137.34;;;2.03;100.00
62694;BME280;48759;52.544;13.418;2023-02-02T01:59:52;100123.44;;;2.06;100.00
62694;BME280;48759;52.544;13.418;2023-02-02T02:02:19;100168.78;;;2.21;100.00
62694;BME280;48759;52.544;13.418;2023-02-02T02:04:47;100141.25;;;2.08;100.00
62694;BME280;48759;52.544;13.418;2023-02-02T02:07:17;100127.00;;;2.06;100.00
62694;BME280;48759;52.544;13.418;2023-02-02T02:09:43;100150.63;;;2.22;100.00
62694;BME280;48759;52.544;13.418;2023-02-02T02:12:11;100145.50;;;2.11;100.00
62694;BME280;48759;52.544;13.418;2023-02-02T02:14:40;100135.34;;;2.21;100.00
62694;BME280;48759;52.544;13.418;2023-02-02T02:18:01;100158.94;;;2.28;100.00
62694;BME280;48759;52.544;13.418;2023-02-02T02:24:39;100145.41;;;2.45;100.00
62694;BME280;48759;52.544;13.418;2023-02-02T02:28:02;100146.41;;;2.44;100.00
62694;BME280;48759;52.544;13.418;2023-02-02T02:33:35;100153.88;;;2.66;100.00
62694;BME280;48759;52.544;13.418;2023-02-02T02:36:14;100159.31;;;2.74;100.00
62694;BME280;48759;52.544;13.418;2023-02-02T02:38:47;100186.16;;;2.69;100.00
62694;BME280;48759;52.544;13.418;2023-02-02T02:41:18;100166.28;;;2.85;100.00
62694;BME280;48759;52.544;13.418;2023-02-02T02:43:50;100167.63;;;2.81;100.00
62694;BME280;48759;52.544;13.418;2023-02-02T02:46:19;100172.91;;;2.66;100.00
62694;BME280;48759;52.544;13.418;2023-02-02T02:48:48;100178.00;;;2.93;100.00
62694;BME280;48759;52.544;13.418;2023-02-02T02:51:40;100173.59;;;2.84;100.00
62694;BME280;48759;52.544;13.418;2023-02-02T02:54:08;100183.63;;;2.92;100.00
62694;BME280;48759;52.544;13.418;2023-02-02T02:56:43;100180.72;;;2.85;100.00
62694;BME280;48759;52.544;13.418;2023-02-02T02:59:19;100173.91;;;3.05;100.00
62694;BME280;48759;52.544;13.418;2023-02-02T03:01:56;100181.06;;;3.06;100.00
62694;BME280;48759;52.544;13.418;2023-02-02T03:04:33;100177.78;;;3.27;100.00
62694;BME280;48759;52.544;13.418;2023-02-02T03:07:06;100194.66;;;2.98;100.00
62694;BME280;48759;52.544;13.418;2023-02-02T03:09:40;100187.81;;;3.19;100.00
62694;BME280;48759;52.544;13.418;2023-02-02T03:12:09;100202.63;;;3.08;100.00
62694;BME280;48759;52.544;13.418;2023-02-02T03:14:36;100214.69;;;2.89;100.00
62694;BME280;48759;52.544;13.418;2023-02-02T03:17:03;100218.78;;;3.09;100.00
62694;BME280;48759;52.544;13.418;2023-02-02T03:19:31;100218.78;;;3.09;100.00
62694;BME280;48759;52.544;13.418;2023-02-02T03:21:58;100231.00;;;2.97;100.00
62694;BME280;48759;52.544;13.418;2023-02-02T03:24:25;100219.78;;;3.17;100.00
62694;BME280;48759;52.544;13.418;2023-02-02T03:26:52;100252.06;;;3.03;100.00
62694;BME280;48759;52.544;13.418;2023-02-02T03:29:18;100224.22;;;2.93;100.00
62694;BME280;48759;52.544;13.418;2023-02-02T03:31:45;100229.47;;;3.19;100.00
62694;BME280;48759;52.544;13.418;2023-02-02T03:34:12;100249.91;;;3.31;100.00
62694;BME280;48759;52.544;13.418;2023-02-02T03:36:40;100246.44;;;2.97;100.00
62694;BME280;48759;52.544;13.418;2023-02-02T03:39:07;100253.44;;;3.24;100.00
62694;BME280;48759;52.544;13.418;2023-02-02T03:41:34;100255.13;;;2.92;100.00
62694;BME280;48759;52.544;13.418;2023-02-02T03:44:00;100284.31;;;2.82;100.00
62694;BME280;48759;52.544;13.418;2023-02-02T03:46:27;100264.28;;;2.91;100.00
62694;BME280;48759;52.544;13.418;2023-02-02T03:48:53;100268.72;;;2.84;100.00
62694;BME280;48759;52.544;13.418;2023-02-02T03:51:20;100272.44;;;2.83;100.00
62694;BME280;48759;52.544;13.418;2023-02-02T03:53:49;100279.72;;;2.83;100.00
62694;BME280;48759;52.544;13.418;2023-02-02T03:56:16;100276.00;;;2.76;100.00
62694;BME280;48759;52.544;13.418;2023-02-02T03:58:43;100275.47;;;2.80;100.00
62694;BME280;48759;52.544;13.418;2023-02-02T04:01:12;100303.56;;;3.21;100.00
62694;BME280;48759;52.544;13.418;2023-02-02T04:03:39;100303.03;;;3.18;100.00
62694;BME280;48759;52.544;13.418;2023-02-02T04:06:06;100309.31;;;3.18;100.00
62694;BME280;48759;52.544;13.418;2023-02-02T04:08:32;100323.28;;;3.15;100.00
62694;BME280;48759;52.544;13.418;2023-02-02T04:11:00;100338.69;;;2.90;100.00
62694;BME280;48759;52.544;13.418;2023-02-02T04:13:27;100328.13;;;2.87;100.00
62694;BME280;48759;52.544;13.418;2023-02-02T04:15:56;100337.69;;;2.99;100.00
62694;BME280;48759;52.544;13.418;2023-02-02T04:18:23;100336.31;;;2.95;100.00
62694;BME280;48759;52.544;13.418;2023-02-02T04:20:55;100364.19;;;3.05;100.00
62694;BME280;48759;52.544;13.418;2023-02-02T04:23:22;100355.56;;;3.26;100.00
62694;BME280;48759;52.544;13.418;2023-02-02T04:25:49;100352.00;;;3.09;100.00
62694;BME280;48759;52.544;13.418;2023-02-02T04:28:17;100364.34;;;2.96;100.00
62694;BME280;48759;52.544;13.418;2023-02-02T04:30:44;100363.69;;;3.18;100.00
62694;BME280;48759;52.544;13.418;2023-02-02T04:33:10;100389.69;;;3.04;100.00
62694;BME280;48759;52.544;13.418;2023-02-02T04:35:37;100374.72;;;2.92;100.00
62694;BME280;48759;52.544;13.418;2023-02-02T04:38:03;100384.59;;;3.18;100.00
62694;BME280;48759;52.544;13.418;2023-02-02T04:40:30;100383.47;;;3.36;100.00
62694;BME280;48759;52.544;13.418;2023-02-02T04:42:57;100389.56;;;3.22;100.00
62694;BME280;48759;52.544;13.418;2023-02-02T04:45:25;100393.81;;;3.25;100.00
62694;BME280;48759;52.544;13.418;2023-02-02T04:47:51;100408.00;;;2.94;100.00
62694;BME280;48759;52.544;13.418;2023-02-02T04:50:18;100399.84;;;3.02;100.00
62694;BME280;48759;52.544;13.418;2023-02-02T04:52:45;100392.75;;;3.18;100.00
62694;BME280;48759;52.544;13.418;2023-02-02T04:55:12;100411.16;;;3.24;100.00
62694;BME280;48759;52.544;13.418;2023-02-02T04:57:38;100416.47;;;3.41;100.00
62694;BME280;48759;52.544;13.418;2023-02-02T05:00:06;100404.75;;;3.57;100.00
62694;BME280;48759;52.544;13.418;2023-02-02T05:02:36;100408.50;;;3.48;100.00
62694;BME280;48759;52.544;13.418;2023-02-02T05:05:04;100420.66;;;3.28;100.00
62694;BME280;48759;52.544;13.418;2023-02-02T05:07:30;100424.44;;;3.35;100.00
62694;BME280;48759;52.544;13.418;2023-02-02T05:09:57;100438.94;;;3.68;100.00
62694;BME280;48759;52.544;13.418;2023-02-02T05:12:24;100443.19;;;3.46;100.00
62694;BME280;48759;52.544;13.418;2023-02-02T05:14:50;100444.84;;;3.31;100.00
62694;BME280;48759;52.544;13.418;2023-02-02T05:17:17;100435.13;;;3.28;100.00
62694;BME280;48759;52.544;13.418;2023-02-02T05:19:45;100444.41;;;3.18;100.00
62694;BME280;48759;52.544;13.418;2023-02-02T05:22:11;100444.84;;;3.31;100.00
62694;BME280;48759;52.544;13.418;2023-02-02T05:24:38;100450.03;;;3.08;100.00
62694;BME280;48759;52.544;13.418;2023-02-02T05:27:05;100455.31;;;3.09;100.00
62694;BME280;48759;52.544;13.418;2023-02-02T05:29:32;100483.31;;;3.10;100.00
62694;BME280;48759;52.544;13.418;2023-02-02T05:31:58;100480.78;;;3.08;100.00
62694;BME280;48759;52.544;13.418;2023-02-02T05:34:25;100470.75;;;3.09;100.00
62694;BME280;48759;52.544;13.418;2023-02-02T05:36:53;100477.44;;;3.23;100.00
62694;BME280;48759;52.544;13.418;2023-02-02T05:39:20;100484.66;;;3.06;100.00
62694;BME280;48759;52.544;13.418;2023-02-02T05:41:46;100484.19;;;3.19;100.00
62694;BME280;48759;52.544;13.418;2023-02-02T05:44:13;100489.13;;;3.15;100.00
62694;BME280;48759;52.544;13.418;2023-02-02T05:46:40;100494.00;;;3.03;100.00
62694;BME280;48759;52.544;13.418;2023-02-02T05:49:10;100507.78;;;3.10;100.00
62694;BME280;48759;52.544;13.418;2023-02-02T05:51:39;100486.19;;;3.00;100.00
62694;BME280;48759;52.544;13.418;2023-02-02T05:54:09;100510.53;;;3.18;100.00
62694;BME280;48759;52.544;13.418;2023-02-02T05:56:36;100504.88;;;3.03;100.00
62694;BME280;48759;52.544;13.418;2023-02-02T05:59:03;100505.16;;;2.92;100.00
62694;BME280;48759;52.544;13.418;2023-02-02T06:01:31;100534.53;;;2.63;100.00
62694;BME280;48759;52.544;13.418;2023-02-02T06:03:58;100544.88;;;2.85;100.00
62694;BME280;48759;52.544;13.418;2023-02-02T06:06:27;100528.31;;;3.04;100.00
62694;BME280;48759;52.544;13.418;2023-02-02T06:08:54;100530.00;;;2.97;100.00
62694;BME280;48759;52.544;13.418;2023-02-02T06:11:21;100555.25;;;2.90;100.00
62694;BME280;48759;52.544;13.418;2023-02-02T06:13:48;100545.19;;;2.82;100.00
62694;BME280;48759;52.544;13.418;2023-02-02T06:16:15;100548.31;;;2.95;100.00
62694;BME280;48759;52.544;13.418;2023-02-02T06:18:41;100548.72;;;3.00;100.00
62694;BME280;48759;52.544;13.418;2023-02-02T06:21:09;100557.06;;;2.81;100.00
62694;BME280;48759;52.544;13.418;2023-02-02T06:23:36;100562.09;;;2.68;100.00
62694;BME280;48759;52.544;13.418;2023-02-02T06:26:03;100570.44;;;2.75;100.00
62694;BME280;48759;52.544;13.418;2023-02-02T06:28:33;100565.94;;;2.83;100.00
62694;BME280;48759;52.544;13.418;2023-02-02T06:31:04;100568.50;;;2.85;100.00
62694;BME280;48759;52.544;13.418;2023-02-02T06:33:31;100567.53;;;2.94;100.00
62694;BME280;48759;52.544;13.418;2023-02-02T06:35:58;100579.09;;;2.70;100.00
62694;BME280;48759;52.544;13.418;2023-02-02T06:38:25;100591.41;;;2.82;100.00
62694;BME280;48759;52.544;13.418;2023-02-02T06:40:52;100585.28;;;2.62;100.00
62694;BME280;48759;52.544;13.418;2023-02-02T06:43:19;100593.34;;;2.72;100.00
62694;BME280;48759;52.544;13.418;2023-02-02T06:45:47;100619.56;;;2.81;100.00
62694;BME280;48759;52.544;13.418;2023-02-02T06:48:14;100592.91;;;2.77;100.00
62694;BME280;48759;52.544;13.418;2023-02-02T06:50:40;100599.81;;;2.97;100.00
62694;BME280;48759;52.544;13.418;2023-02-02T06:53:07;100606.78;;;2.74;100.00
62694;BME280;48759;52.544;13.418;2023-02-02T06:55:34;100610.34;;;2.74;100.00
62694;BME280;48759;52.544;13.418;2023-02-02T06:58:04;100610.16;;;2.67;100.00
62694;BME280;48759;52.544;13.418;2023-02-02T07:00:31;100607.63;;;2.74;100.00
62694;BME280;48759;52.544;13.418;2023-02-02T07:03:05;100624.94;;;2.73;100.00
62694;BME280;48759;52.544;13.418;2023-02-02T07:05:32;100634.31;;;2.53;100.00
62694;BME280;48759;52.544;13.418;2023-02-02T07:08:05;100635.44;;;2.68;100.00
62694;BME280;48759;52.544;13.418;2023-02-02T07:10:35;100639.75;;;2.53;100.00
62694;BME280;48759;52.544;13.418;2023-02-02T07:13:05;100653.91;;;2.64;100.00
62694;BME280;48759;52.544;13.418;2023-02-02T07:15:32;100669.25;;;2.30;100.00
62694;BME280;48759;52.544;13.418;2023-02-02T07:17:59;100654.00;;;2.55;100.00
62694;BME280;48759;52.544;13.418;2023-02-02T07:20:27;100678.94;;;2.68;100.00
62694;BME280;48759;52.544;13.418;2023-02-02T07:22:53;100669.13;;;3.44;100.00
62694;BME280;48759;52.544;13.418;2023-02-02T07:25:20;100675.47;;;3.53;100.00
62694;BME280;48759;52.544;13.418;2023-02-02T07:27:51;100691.53;;;3.38;100.00
62694;BME280;48759;52.544;13.418;2023-02-02T07:30:18;100689.38;;;3.24;100.00
62694;BME280;48759;52.544;13.418;2023-02-02T07:32:46;100687.88;;;3.30;100.00
62694;BME280;48759;52.544;13.418;2023-02-02T07:35:12;100695.94;;;2.70;100.00
62694;BME280;48759;52.544;13.418;2023-02-02T07:37:41;100691.09;;;3.25;100.00
62694;BME280;48759;52.544;13.418;2023-02-02T07:40:09;100697.00;;;2.77;100.00
62694;BME280;48759;52.544;13.418;2023-02-02T07:42:36;100693.31;;;2.86;100.00
62694;BME280;48759;52.544;13.418;2023-02-02T07:45:03;100710.59;;;2.77;100.00
62694;BME280;48759;52.544;13.418;2023-02-02T07:47:30;100694.78;;;2.98;100.00
62694;BME280;48759;52.544;13.418;2023-02-02T07:49:57;100707.03;;;3.02;100.00
62694;BME280;48759;52.544;13.418;2023-02-02T07:52:23;100713.69;;;3.00;100.00
62694;BME280;48759;52.544;13.418;2023-02-02T07:54:51;100718.56;;;2.96;100.00
62694;BME280;48759;52.544;13.418;2023-02-02T07:57:18;100705.00;;;2.61;100.00
62694;BME280;48759;52.544;13.418;2023-02-02T07:59:44;100709.25;;;2.81;100.00
62694;BME280;48759;52.544;13.418;2023-02-02T08:02:11;100709.59;;;3.22;100.00
62694;BME280;48759;52.544;13.418;2023-02-02T08:04:38;100727.06;;;3.63;100.00
62694;BME280;48759;52.544;13.418;2023-02-02T08:07:04;100727.78;;;3.73;100.00
62694;BME280;48759;52.544;13.418;2023-02-02T08:09:31;100721.50;;;3.72;100.00
62694;BME280;48759;52.544;13.418;2023-02-02T08:11:59;100741.88;;;2.81;100.00
62694;BME280;48759;52.544;13.418;2023-02-02T08:14:27;100735.94;;;3.03;100.00
62694;BME280;48759;52.544;13.418;2023-02-02T08:16:54;100741.16;;;2.79;100.00
62694;BME280;48759;52.544;13.418;2023-02-02T08:19:20;100752.88;;;2.97;100.00
62694;BME280;48759;52.544;13.418;2023-02-02T08:21:47;100757.38;;;3.06;100.00
62694;BME280;48759;52.544;13.418;2023-02-02T08:24:13;100745.97;;;3.03;100.00
62694;BME280;48759;52.544;13.418;2023-02-02T08:26:40;100765.53;;;4.02;100.00
62694;BME280;48759;52.544;13.418;2023-02-02T08:29:11;100759.31;;;3.83;100.00
62694;BME280;48759;52.544;13.418;2023-02-02T08:31:47;100770.38;;;3.56;100.00
62694;BME280;48759;52.544;13.418;2023-02-02T08:34:15;100768.63;;;3.47;100.00
62694;BME280;48759;52.544;13.418;2023-02-02T08:36:42;100771.22;;;3.31;100.00
62694;BME280;48759;52.544;13.418;2023-02-02T08:39:11;100770.06;;;3.59;100.00
62694;BME280;48759;52.544;13.418;2023-02-02T08:41:38;100758.84;;;3.88;100.00
62694;BME280;48759;52.544;13.418;2023-02-02T08:44:05;100777.72;;;3.02;100.00
62694;BME280;48759;52.544;13.418;2023-02-02T08:46:33;100766.78;;;2.94;100.00
62694;BME280;48759;52.544;13.418;2023-02-02T08:49:00;100774.41;;;2.73;100.00
62694;BME280;48759;52.544;13.418;2023-02-02T08:51:27;100777.06;;;3.00;100.00
62694;BME280;48759;52.544;13.418;2023-02-02T08:53:54;100777.81;;;3.10;100.00
62694;BME280;48759;52.544;13.418;2023-02-02T08:56:21;100784.34;;;3.61;100.00
62694;BME280;48759;52.544;13.418;2023-02-02T08:58:49;100791.69;;;3.43;100.00
62694;BME280;48759;52.544;13.418;2023-02-02T09:01:18;100788.41;;;3.31;100.00
62694;BME280;48759;52.544;13.418;2023-02-02T09:03:47;100782.88;;;3.41;100.00
62694;BME280;48759;52.544;13.418;2023-02-02T09:06:14;100792.16;;;3.56;100.00
62694;BME280;48759;52.544;13.418;2023-02-02T09:08:42;100791.38;;;4.98;100.00
62694;BME280;48759;52.544;13.418;2023-02-02T09:11:11;100807.47;;;4.17;100.00
62694;BME280;48759;52.544;13.418;2023-02-02T09:13:39;100799.63;;;3.54;100.00
62694;BME280;48759;52.544;13.418;2023-02-02T09:16:08;100818.72;;;3.62;100.00
62694;BME280;48759;52.544;13.418;2023-02-02T09:18:36;100819.97;;;3.50;100.00
62694;BME280;48759;52.544;13.418;2023-02-02T09:21:06;100829.38;;;3.81;100.00
62694;BME280;48759;52.544;13.418;2023-02-02T09:23:35;100823.22;;;3.71;100.00
62694;BME280;48759;52.544;13.418;2023-02-02T09:26:09;100828.00;;;3.77;100.00
62694;BME280;48759;52.544;13.418;2023-02-02T09:28:36;100819.25;;;3.66;100.00
62694;BME280;48759;52.544;13.418;2023-02-02T09:31:03;100840.22;;;3.73;100.00
62694;BME280;48759;52.544;13.418;2023-02-02T09:33:30;100838.19;;;3.75;100.00
62694;BME280;48759;52.544;13.418;2023-02-02T09:36:04;100843.00;;;4.99;100.00
62694;BME280;48759;52.544;13.418;2023-02-02T09:38:31;100849.41;;;5.65;100.00
62694;BME280;48759;52.544;13.418;2023-02-02T09:40:58;100839.50;;;5.39;100.00
62694;BME280;48759;52.544;13.418;2023-02-02T09:43:42;100862.78;;;5.01;100.00
62694;BME280;48759;52.544;13.418;2023-02-02T09:46:21;100877.59;;;4.99;100.00
62694;BME280;48759;52.544;13.418;2023-02-02T09:48:56;100864.88;;;5.16;100.00
62694;BME280;48759;52.544;13.418;2023-02-02T09:51:28;100876.56;;;4.92;100.00
62694;BME280;48759;52.544;13.418;2023-02-02T09:53:58;100883.25;;;4.55;100.00
62694;BME280;48759;52.544;13.418;2023-02-02T09:56:31;100878.16;;;4.60;100.00
62694;BME280;48759;52.544;13.418;2023-02-02T09:59:00;100867.16;;;4.36;100.00
62694;BME280;48759;52.544;13.418;2023-02-02T10:01:30;100864.44;;;5.45;100.00
62694;BME280;48759;52.544;13.418;2023-02-02T10:04:03;100886.41;;;4.77;100.00
62694;BME280;48759;52.544;13.418;2023-02-02T10:06:36;100875.81;;;4.66;100.00
62694;BME280;48759;52.544;13.418;2023-02-02T10:09:12;100874.66;;;4.76;100.00
62694;BME280;48759;52.544;13.418;2023-02-02T10:11:45;100878.78;;;4.46;100.00
62694;BME280;48759;52.544;13.418;2023-02-02T10:14:18;100876.91;;;4.81;100.00
62694;BME280;48759;52.544;13.418;2023-02-02T10:16:48;100873.78;;;4.76;100.00
62694;BME280;48759;52.544;13.418;2023-02-02T10:19:18;100896.56;;;5.09;100.00
62694;BME280;48759;52.544;13.418;2023-02-02T10:21:51;100885.91;;;5.31;100.00
62694;BME280;48759;52.544;13.418;2023-02-02T10:24:22;100888.81;;;5.46;100.00
62694;BME280;48759;52.544;13.418;2023-02-02T10:26:52;100901.13;;;4.92;100.00
62694;BME280;48759;52.544;13.418;2023-02-02T10:29:31;100912.81;;;3.91;100.00
62694;BME280;48759;52.544;13.418;2023-02-02T10:32:05;100914.78;;;5.00;100.00
62694;BME280;48759;52.544;13.418;2023-02-02T10:34:40;100896.50;;;4.16;100.00
62694;BME280;48759;52.544;13.418;2023-02-02T10:37:18;100894.53;;;4.01;100.00
62694;BME280;48759;52.544;13.418;2023-02-02T10:40:03;100894.09;;;4.39;100.00
62694;BME280;48759;52.544;13.418;2023-02-02T10:42:38;100901.34;;;4.05;100.00
62694;BME280;48759;52.544;13.418;2023-02-02T10:45:13;100896.41;;;4.26;100.00
62694;BME280;48759;52.544;13.418;2023-02-02T10:47:41;100929.09;;;4.60;100.00
62694;BME280;48759;52.544;13.418;2023-02-02T10:50:15;100914.28;;;4.29;100.00
62694;BME280;48759;52.544;13.418;2023-02-02T10:52:46;100898.47;;;4.32;100.00
62694;BME280;48759;52.544;13.418;2023-02-02T10:55:20;100921.72;;;4.52;100.00
62694;BME280;48759;52.544;13.418;2023-02-02T10:57:59;100911.19;;;4.49;100.00
62694;BME280;48759;52.544;13.418;2023-02-02T11:00:30;100912.19;;;4.22;100.00
62694;BME280;48759;52.544;13.418;2023-02-02T11:02:59;100922.84;;;4.34;100.00
62694;BME280;48759;52.544;13.418;2023-02-02T11:05:29;100915.94;;;4.47;100.00
62694;BME280;48759;52.544;13.418;2023-02-02T11:08:17;100927.53;;;4.49;100.00
62694;BME280;48759;52.544;13.418;2023-02-02T11:10:47;100929.00;;;4.44;100.00
62694;BME280;48759;52.544;13.418;2023-02-02T11:13:20;100925.44;;;4.43;100.00
62694;BME280;48759;52.544;13.418;2023-02-02T11:15:50;100930.38;;;4.74;100.00
62694;BME280;48759;52.544;13.418;2023-02-02T11:18:27;100928.59;;;4.56;100.00
62694;BME280;48759;52.544;13.418;2023-02-02T11:20:54;100940.53;;;4.97;100.00
62694;BME280;48759;52.544;13.418;2023-02-02T11:23:25;100960.34;;;4.40;100.00
62694;BME280;48759;52.544;13.418;2023-02-02T11:25:57;100943.19;;;4.47;100.00
62694;BME280;48759;52.544;13.418;2023-02-02T11:28:25;100958.09;;;4.69;100.00
62694;BME280;48759;52.544;13.418;2023-02-02T11:30:55;100955.59;;;4.76;100.00
62694;BME280;48759;52.544;13.418;2023-02-02T11:33:27;100964.19;;;5.39;100.00
62694;BME280;48759;52.544;13.418;2023-02-02T11:35:55;100987.41;;;5.01;100.00
62694;BME280;48759;52.544;13.418;2023-02-02T11:38:25;100965.19;;;4.88;100.00
62694;BME280;48759;52.544;13.418;2023-02-02T11:40:55;100969.09;;;5.19;100.00
62694;BME280;48759;52.544;13.418;2023-02-02T11:43:27;100964.09;;;5.15;100.00
62694;BME280;48759;52.544;13.418;2023-02-02T11:45:57;100955.88;;;5.57;100.00
62694;BME280;48759;52.544;13.418;2023-02-02T11:48:27;100998.50;;;5.08;100.00
62694;BME280;48759;52.544;13.418;2023-02-02T11:50:56;100970.13;;;5.18;100.00
62694;BME280;48759;52.544;13.418;2023-02-02T11:53:27;100972.75;;;5.02;100.00
62694;BME280;48759;52.544;13.418;2023-02-02T11:55:56;100978.59;;;5.15;100.00
62694;BME280;48759;52.544;13.418;2023-02-02T11:58:25;100984.03;;;5.15;100.00
62694;BME280;48759;52.544;13.418;2023-02-02T12:00:55;100979.94;;;5.11;100.00
62694;BME280;48759;52.544;13.418;2023-02-02T12:03:33;101002.78;;;5.10;100.00
62694;BME280;48759;52.544;13.418;2023-02-02T12:06:17;101057.38;;;4.58;100.00
62694;BME280;48759;52.544;13.418;2023-02-02T12:08:45;101012.63;;;4.43;100.00
62694;BME280;48759;52.544;13.418;2023-02-02T12:11:22;101015.34;;;4.43;100.00
62694;BME280;48759;52.544;13.418;2023-02-02T12:14:04;101012.59;;;4.35;100.00
62694;BME280;48759;52.544;13.418;2023-02-02T12:16:50;101027.38;;;4.33;100.00
62694;BME280;48759;52.544;13.418;2023-02-02T12:19:32;101035.34;;;4.52;100.00
62694;BME280;48759;52.544;13.418;2023-02-02T12:22:15;101039.00;;;4.35;100.00
62694;BME280;48759;52.544;13.418;2023-02-02T12:24:54;101042.19;;;4.12;100.00
62694;BME280;48759;52.544;13.418;2023-02-02T12:27:31;101050.19;;;3.96;100.00
62694;BME280;48759;52.544;13.418;2023-02-02T12:30:11;101050.97;;;3.53;100.00
62694;BME280;48759;52.544;13.418;2023-02-02T12:32:49;101048.94;;;3.73;100.00
62694;BME280;48759;52.544;13.418;2023-02-02T12:35:31;101047.00;;;3.65;100.00
62694;BME280;48759;52.544;13.418;2023-02-02T12:38:11;101028.72;;;3.58;100.00
62694;BME280;48759;52.544;13.418;2023-02-02T12:40:54;101033.25;;;3.84;100.00
62694;BME280;48759;52.544;13.418;2023-02-02T12:43:32;101018.03;;;4.35;100.00
62694;BME280;48759;52.544;13.418;2023-02-02T12:46:16;101033.47;;;4.09;100.00
62694;BME280;48759;52.544;13.418;2023-02-02T12:48:57;101039.50;;;3.95;100.00
62694;BME280;48759;52.544;13.418;2023-02-02T12:51:37;101040.00;;;3.80;100.00
62694;BME280;48759;52.544;13.418;2023-02-02T12:54:35;101052.53;;;4.27;100.00
62694;BME280;48759;52.544;13.418;2023-02-02T12:57:13;101049.03;;;4.86;100.00
62694;BME280;48759;52.544;13.418;2023-02-02T13:00:03;101055.31;;;5.12;100.00
62694;BME280;48759;52.544;13.418;2023-02-02T13:02:37;101054.91;;;4.99;100.00
62694;BME280;48759;52.544;13.418;2023-02-02T13:05:23;101046.31;;;4.86;100.00